Time;durP1;ratioP1;P1;durP2;ratioP2;P2;SDS_P1;SDS_P2;PMS_P1;PMS_P2;Temp;Humidity;BMP_temperature;BMP_pressure;BME280_temperature;BME280_humidity;BME280_pressure;Samples;Min_cycle;Max_cycle;Signal;HPM_P1;HPM_P2
2023/03/02 00:01:02;;;;;;;25.05;15.35;;;0.20;99.90;;;;;;477058;248;27799;-75
2023/03/02 00:03:03;;;;;;;25.58;15.60;;;0.20;99.90;;;;;;480251;247;27926;-73
2023/03/02 00:05:05;;;;;;;22.50;15.52;;;0.20;99.90;;;;;;477061;249;27343;-74
2023/03/02 00:07:06;;;;;;;28.05;16.12;;;0.20;99.90;;;;;;480257;246;27478;-75
2023/03/02 00:09:07;;;;;;;29.48;16.12;;;0.30;99.90;;;;;;477047;248;27378;-76
2023/03/02 00:11:08;;;;;;;24.63;15.52;;;0.20;99.90;;;;;;480277;246;27435;-74
2023/03/02 00:13:09;;;;;;;23.33;15.32;;;0.10;99.90;;;;;;477077;248;27441;-75
2023/03/02 00:15:10;;;;;;;26.12;16.80;;;0.10;99.90;;;;;;480263;247;27979;-75
2023/03/02 00:17:12;;;;;;;25.10;16.08;;;0.10;99.90;;;;;;477098;248;27855;-75
2023/03/02 00:19:13;;;;;;;26.75;16.85;;;0.10;99.90;;;;;;480265;246;27453;-75
2023/03/02 00:21:14;;;;;;;24.65;15.93;;;0.10;99.90;;;;;;477044;248;27307;-75
2023/03/02 00:23:15;;;;;;;25.00;16.55;;;0.10;99.90;;;;;;480243;246;27436;-74
2023/03/02 00:25:17;;;;;;;28.73;17.00;;;0.10;99.90;;;;;;477062;248;27355;-74
2023/03/02 00:27:18;;;;;;;29.87;17.80;;;0.10;99.90;;;;;;480276;247;27510;-74
2023/03/02 00:29:19;;;;;;;26.20;15.93;;;0.00;99.90;;;;;;477067;248;27362;-74
2023/03/02 00:31:20;;;;;;;27.67;16.77;;;0.10;99.90;;;;;;480273;246;27854;-74
2023/03/02 00:33:22;;;;;;;25.00;16.12;;;0.10;99.90;;;;;;477028;248;27837;-74
2023/03/02 00:35:24;;;;;;;32.70;15.27;;;0.00;99.90;;;;;;480264;246;27454;-74
2023/03/02 00:37:24;;;;;;;27.02;16.37;;;0.00;99.90;;;;;;477064;248;27415;-75
2023/03/02 00:39:25;;;;;;;26.58;16.75;;;0.00;99.90;;;;;;480310;246;27453;-74
2023/03/02 00:41:27;;;;;;;24.75;15.23;;;0.00;99.90;;;;;;477116;248;27323;-74
2023/03/02 00:43:28;;;;;;;24.00;15.35;;;0.00;99.90;;;;;;480312;246;27443;-75
2023/03/02 00:45:29;;;;;;;28.10;15.70;;;-0.10;99.90;;;;;;477099;248;27883;-75
2023/03/02 00:47:31;;;;;;;31.87;16.50;;;-0.10;99.90;;;;;;480270;246;27858;-75
2023/03/02 00:49:32;;;;;;;26.42;16.90;;;-0.10;99.90;;;;;;477012;248;27350;-75
2023/03/02 00:51:33;;;;;;;28.30;17.20;;;-0.20;99.90;;;;;;480262;246;27394;-74
2023/03/02 00:53:34;;;;;;;23.87;15.38;;;-0.10;99.90;;;;;;469033;251;27457;-76
2023/03/02 00:55:36;;;;;;;27.20;16.75;;;-0.20;99.90;;;;;;480255;247;27420;-74
2023/03/02 00:57:37;;;;;;;22.60;15.30;;;-0.20;99.90;;;;;;469038;252;27460;-74
2023/03/02 00:59:38;;;;;;;25.58;16.87;;;-0.20;99.90;;;;;;480253;243;27930;-75
2023/03/02 01:01:39;;;;;;;27.58;16.55;;;-0.20;99.90;;;;;;468619;252;27345;-74
2023/03/02 01:03:41;;;;;;;30.25;17.60;;;-0.20;99.90;;;;;;480166;247;27428;-75
2023/03/02 01:05:42;;;;;;;28.62;17.25;;;-0.20;99.90;;;;;;480245;247;27453;-75
2023/03/02 01:07:43;;;;;;;26.37;17.00;;;-0.30;99.90;;;;;;477045;248;27367;-76
2023/03/02 01:09:44;;;;;;;30.20;17.35;;;-0.30;99.90;;;;;;480291;246;27446;-76
2023/03/02 01:11:46;;;;;;;29.98;17.08;;;-0.30;99.90;;;;;;469050;252;27908;-74
2023/03/02 01:13:47;;;;;;;27.55;16.75;;;-0.30;99.90;;;;;;480256;247;27994;-75
2023/03/02 01:15:48;;;;;;;29.63;17.45;;;-0.20;99.90;;;;;;478668;247;27443;-75
2023/03/02 01:17:49;;;;;;;28.35;16.80;;;-0.20;99.90;;;;;;469009;252;27453;-75
2023/03/02 01:19:51;;;;;;;27.17;16.73;;;-0.30;99.90;;;;;;480180;247;27525;-75
2023/03/02 01:21:52;;;;;;;35.22;19.02;;;-0.30;99.90;;;;;;480271;247;27482;-74
2023/03/02 01:23:53;;;;;;;29.30;16.37;;;-0.30;99.90;;;;;;469021;252;27933;-76
2023/03/02 01:25:54;;;;;;;31.15;17.12;;;-0.30;99.90;;;;;;480257;247;28895;-74
2023/03/02 01:27:57;;;;;;;32.10;16.55;;;-0.30;99.90;;;;;;480249;247;27407;-74
2023/03/02 01:29:57;;;;;;;28.85;17.83;;;-0.30;99.90;;;;;;477058;248;27343;-74
2023/03/02 01:31:58;;;;;;;28.85;17.65;;;-0.30;99.90;;;;;;480225;246;27427;-74
2023/03/02 01:33:59;;;;;;;31.67;18.27;;;-0.40;99.90;;;;;;468917;252;27571;-76
2023/03/02 01:36:01;;;;;;;29.35;17.48;;;-0.40;99.90;;;;;;480139;247;28591;-77
2023/03/02 01:38:02;;;;;;;30.23;17.55;;;-0.40;99.90;;;;;;477019;248;28885;-76
2023/03/02 01:45:07;;;;;;;29.00;17.00;;;-0.40;99.90;;;;;;480229;247;27502;-74
2023/03/02 01:47:12;;;;;;;27.92;17.90;;;-0.40;99.90;;;;;;480227;247;27915;-74
2023/03/02 01:49:10;;;;;;;30.50;18.45;;;-0.40;99.90;;;;;;476763;249;27355;-75
2023/03/02 01:51:13;;;;;;;30.20;18.95;;;-0.40;99.90;;;;;;480235;246;27551;-76
2023/03/02 01:53:12;;;;;;;32.28;18.77;;;-0.40;99.90;;;;;;476884;249;27521;-75
2023/03/02 01:55:14;;;;;;;25.90;16.08;;;-0.40;99.90;;;;;;480255;246;27462;-74
2023/03/02 01:57:15;;;;;;;28.83;17.58;;;-0.50;99.90;;;;;;469016;252;27419;-75
2023/03/02 01:59:16;;;;;;;31.12;17.85;;;-0.40;99.90;;;;;;480223;247;28006;-74
2023/03/02 02:01:17;;;;;;;26.95;16.65;;;-0.50;99.90;;;;;;480240;247;27871;-75
2023/03/02 02:03:19;;;;;;;28.62;18.12;;;-0.50;99.90;;;;;;469012;252;27457;-74
2023/03/02 02:05:20;;;;;;;29.33;16.12;;;-0.40;99.90;;;;;;477043;249;27387;-75
2023/03/02 02:07:21;;;;;;;30.35;19.00;;;-0.40;99.90;;;;;;480141;247;27402;-76
2023/03/02 02:09:22;;;;;;;31.98;17.90;;;-0.50;99.90;;;;;;480287;247;27407;-76
2023/03/02 02:11:24;;;;;;;33.20;18.35;;;-0.50;99.90;;;;;;469073;252;27855;-74
2023/03/02 02:13:25;;;;;;;33.88;18.80;;;-0.50;99.90;;;;;;480300;247;27863;-76
2023/03/02 02:15:26;;;;;;;32.47;18.48;;;-0.50;99.90;;;;;;477113;248;27354;-75
2023/03/02 02:17:27;;;;;;;35.50;19.02;;;-0.50;99.90;;;;;;480292;246;27399;-74
2023/03/02 02:19:29;;;;;;;29.90;17.65;;;-0.50;99.90;;;;;;469074;252;27370;-75
2023/03/02 02:21:30;;;;;;;28.92;17.85;;;-0.50;99.90;;;;;;480281;247;27477;-74
2023/03/02 02:23:31;;;;;;;28.30;16.40;;;-0.50;99.90;;;;;;469051;252;27360;-76
2023/03/02 02:25:32;;;;;;;31.15;18.62;;;-0.50;99.90;;;;;;480258;247;27938;-76
2023/03/02 02:27:34;;;;;;;31.75;18.98;;;-0.50;99.90;;;;;;480293;247;27384;-75
2023/03/02 02:29:35;;;;;;;33.45;18.20;;;-0.60;99.90;;;;;;469049;252;27367;-75
2023/03/02 02:31:36;;;;;;;28.33;17.67;;;-0.60;99.90;;;;;;480282;247;27391;-75
2023/03/02 02:33:37;;;;;;;32.83;17.65;;;-0.60;99.90;;;;;;469009;252;27373;-75
2023/03/02 02:35:39;;;;;;;30.10;18.40;;;-0.60;99.90;;;;;;480212;247;27456;-76
2023/03/02 02:37:40;;;;;;;31.90;19.23;;;-0.60;99.90;;;;;;469063;252;27977;-74
2023/03/02 02:39:41;;;;;;;34.55;20.10;;;-0.70;99.90;;;;;;480268;247;28116;-76
2023/03/02 02:41:43;;;;;;;29.42;17.90;;;-0.60;99.90;;;;;;468627;252;27413;-74
2023/03/02 02:43:44;;;;;;;29.58;18.85;;;-0.60;99.90;;;;;;480250;246;27427;-74
2023/03/02 02:45:45;;;;;;;28.10;17.90;;;-0.70;99.90;;;;;;469037;252;27696;-75
2023/03/02 02:47:46;;;;;;;28.45;18.10;;;-0.70;99.90;;;;;;480214;247;27411;-74
2023/03/02 02:49:48;;;;;;;33.10;19.10;;;-0.70;99.90;;;;;;469051;252;27941;-75
2023/03/02 02:51:49;;;;;;;31.08;19.17;;;-0.70;99.90;;;;;;480264;247;27932;-75
2023/03/02 02:53:50;;;;;;;34.95;19.45;;;-0.80;99.90;;;;;;480251;247;27431;-74
2023/03/02 02:55:51;;;;;;;28.60;18.35;;;-0.80;99.90;;;;;;469049;252;27369;-75
2023/03/02 02:57:53;;;;;;;34.72;19.75;;;-0.80;99.90;;;;;;480176;247;27393;-74
2023/03/02 02:59:54;;;;;;;32.72;18.12;;;-0.80;99.90;;;;;;469050;252;27370;-74
2023/03/02 03:01:55;;;;;;;32.05;19.12;;;-0.80;99.90;;;;;;480266;247;27858;-74
2023/03/02 03:03:56;;;;;;;30.42;17.70;;;-0.80;99.90;;;;;;469048;252;28952;-75
2023/03/02 03:05:58;;;;;;;32.80;20.05;;;-0.80;99.90;;;;;;480260;247;27431;-74
2023/03/02 03:07:59;;;;;;;32.55;18.70;;;-0.80;99.90;;;;;;468617;252;27376;-75
2023/03/02 03:10:00;;;;;;;38.45;19.85;;;-0.90;99.90;;;;;;480247;246;27512;-76
2023/03/02 03:12:01;;;;;;;34.58;19.50;;;-0.80;99.90;;;;;;477084;248;27332;-74
2023/03/02 03:14:03;;;;;;;36.47;19.65;;;-0.70;99.90;;;;;;480260;247;27427;-75
2023/03/02 03:16:04;;;;;;;36.53;20.50;;;-0.70;99.90;;;;;;469020;252;27914;-76
2023/03/02 03:18:05;;;;;;;34.67;19.62;;;-0.70;99.90;;;;;;480224;247;27471;-74
2023/03/02 03:20:09;;;;;;;36.13;20.08;;;-0.70;99.90;;;;;;469069;252;27425;-75
2023/03/02 03:22:11;;;;;;;32.50;20.15;;;-0.70;99.90;;;;;;480287;247;27513;-75
2023/03/02 03:24:12;;;;;;;32.40;20.50;;;-0.70;99.90;;;;;;469060;252;27330;-75
2023/03/02 03:26:13;;;;;;;29.67;18.00;;;-0.70;99.90;;;;;;480293;247;27903;-74
2023/03/02 03:28:14;;;;;;;34.42;19.00;;;-0.70;99.90;;;;;;468573;254;27855;-76
2023/03/02 03:30:16;;;;;;;30.73;17.55;;;-0.70;99.90;;;;;;480227;246;27459;-75
2023/03/02 03:32:17;;;;;;;37.83;21.17;;;-0.70;99.90;;;;;;468311;252;27589;-77
2023/03/02 03:34:18;;;;;;;39.25;19.20;;;-0.70;99.90;;;;;;479603;246;27421;-76
2023/03/02 03:36:19;;;;;;;33.60;19.17;;;-0.80;99.90;;;;;;468801;252;27405;-75
2023/03/02 03:38:21;;;;;;;33.33;20.70;;;-0.70;99.90;;;;;;480223;247;27950;-75
2023/03/02 03:40:22;;;;;;;36.70;19.80;;;-0.70;99.90;;;;;;480269;247;29161;-74
2023/03/02 03:42:23;;;;;;;34.20;21.27;;;-0.70;99.90;;;;;;480263;247;27509;-75
2023/03/02 03:44:25;;;;;;;34.70;20.17;;;-0.70;99.90;;;;;;469019;252;27333;-74
2023/03/02 03:46:26;;;;;;;35.17;21.58;;;-0.70;99.90;;;;;;480236;243;27411;-75
2023/03/02 03:48:27;;;;;;;28.67;19.35;;;-0.70;99.90;;;;;;469081;252;27492;-74
2023/03/02 03:50:28;;;;;;;38.30;20.67;;;-0.70;99.90;;;;;;480255;247;27449;-75
2023/03/02 03:52:30;;;;;;;34.58;20.55;;;-0.70;99.90;;;;;;468613;252;27876;-75
2023/03/02 03:54:31;;;;;;;34.45;20.12;;;-0.70;99.90;;;;;;480210;246;27487;-74
2023/03/02 03:56:32;;;;;;;33.05;19.25;;;-0.70;99.90;;;;;;469042;252;27440;-76
2023/03/02 03:58:33;;;;;;;35.60;20.12;;;-0.70;99.90;;;;;;480256;247;27593;-75
2023/03/02 04:00:35;;;;;;;34.72;19.77;;;-0.70;99.90;;;;;;469061;252;27497;-76
2023/03/02 04:02:36;;;;;;;36.28;21.15;;;-0.80;99.90;;;;;;479985;247;27436;-75
2023/03/02 04:04:37;;;;;;;32.53;18.98;;;-0.80;99.90;;;;;;480224;247;29025;-75
2023/03/02 04:06:38;;;;;;;37.17;20.30;;;-0.80;99.90;;;;;;469014;252;27865;-75
2023/03/02 04:08:40;;;;;;;36.80;20.83;;;-0.80;99.90;;;;;;480259;247;27538;-74
2023/03/02 04:10:41;;;;;;;31.15;18.62;;;-0.80;99.90;;;;;;469039;252;27424;-75
2023/03/02 04:12:42;;;;;;;34.03;20.73;;;-0.80;99.90;;;;;;480205;247;27557;-75
2023/03/02 04:14:44;;;;;;;32.95;19.25;;;-0.80;99.90;;;;;;468622;252;27384;-75
2023/03/02 04:16:45;;;;;;;33.83;20.25;;;-0.90;99.90;;;;;;480258;246;27879;-75
2023/03/02 04:18:46;;;;;;;34.25;21.02;;;-0.80;99.90;;;;;;469052;252;27952;-73
2023/03/02 04:20:47;;;;;;;34.33;19.15;;;-0.80;99.90;;;;;;480264;247;27379;-74
2023/03/02 04:22:48;;;;;;;36.80;20.58;;;-0.90;99.90;;;;;;469013;252;27469;-76
2023/03/02 04:24:50;;;;;;;35.60;19.48;;;-0.80;99.90;;;;;;480075;247;27877;-74
2023/03/02 04:26:51;;;;;;;37.30;20.65;;;-0.90;99.90;;;;;;469058;252;27365;-76
2023/03/02 04:28:52;;;;;;;36.25;20.27;;;-0.80;99.90;;;;;;477066;248;27807;-74
2023/03/02 04:30:54;;;;;;;38.78;20.45;;;-0.90;99.90;;;;;;480241;246;28918;-74
2023/03/02 04:32:56;;;;;;;32.28;19.27;;;-0.90;99.90;;;;;;469050;252;27405;-75
2023/03/02 04:34:56;;;;;;;32.17;19.37;;;-0.90;99.90;;;;;;480204;247;27538;-76
2023/03/02 04:36:57;;;;;;;39.78;20.75;;;-0.90;99.90;;;;;;469060;252;27528;-75
2023/03/02 04:38:59;;;;;;;31.92;19.12;;;-0.90;99.90;;;;;;480275;247;27549;-74
2023/03/02 04:41:00;;;;;;;34.70;19.95;;;-0.90;99.90;;;;;;480267;247;27395;-76
2023/03/02 04:43:01;;;;;;;39.35;21.20;;;-0.90;99.90;;;;;;468504;254;27863;-75
2023/03/02 04:45:02;;;;;;;35.30;21.48;;;-0.90;99.90;;;;;;480258;246;27415;-75
2023/03/02 04:47:04;;;;;;;35.70;21.80;;;-0.90;99.90;;;;;;469049;251;27425;-75
2023/03/02 04:49:05;;;;;;;33.05;20.40;;;-0.90;99.90;;;;;;480282;247;27439;-75
2023/03/02 04:51:07;;;;;;;34.83;19.98;;;-1.00;99.90;;;;;;469063;252;27434;-75
2023/03/02 04:53:07;;;;;;;35.30;19.70;;;-1.00;99.90;;;;;;480244;247;27529;-75
2023/03/02 04:55:09;;;;;;;34.95;19.80;;;-0.90;99.90;;;;;;480263;247;27982;-76
2023/03/02 04:57:10;;;;;;;31.77;18.52;;;-1.00;99.90;;;;;;468648;252;27866;-74
2023/03/02 04:59:11;;;;;;;38.13;20.23;;;-1.00;99.90;;;;;;480252;246;27494;-74
2023/03/02 05:01:12;;;;;;;35.00;20.58;;;-1.00;99.90;;;;;;469052;252;27426;-76
2023/03/02 05:03:14;;;;;;;32.78;19.48;;;-1.00;99.90;;;;;;480244;247;27465;-75
2023/03/02 05:05:15;;;;;;;36.55;21.02;;;-0.90;99.90;;;;;;469040;252;27492;-74
2023/03/02 05:07:16;;;;;;;35.83;20.15;;;-1.00;99.90;;;;;;480250;247;27883;-75
2023/03/02 05:09:17;;;;;;;35.75;20.00;;;-0.90;99.90;;;;;;469035;252;28072;-75
2023/03/02 05:11:28;;;;;;;33.05;18.90;;;-0.90;99.90;;;;;;480184;247;27423;-75
2023/03/02 05:13:23;;;;;;;30.70;18.67;;;-0.80;99.90;;;;;;476679;249;27323;-74
2023/03/02 05:15:24;;;;;;;33.80;20.52;;;-0.80;99.90;;;;;;480230;246;27415;-76
2023/03/02 05:17:25;;;;;;;32.55;19.00;;;-0.80;99.90;;;;;;469070;252;27454;-75
2023/03/02 05:19:27;;;;;;;33.67;20.25;;;-0.80;99.90;;;;;;480256;247;27853;-74
2023/03/02 05:21:29;;;;;;;32.90;18.45;;;-0.80;99.90;;;;;;469054;252;27964;-76
2023/03/02 05:23:30;;;;;;;34.42;19.98;;;-0.90;99.90;;;;;;480085;247;27435;-75
2023/03/02 05:25:30;;;;;;;28.90;18.27;;;-0.90;99.90;;;;;;477028;248;27359;-75
2023/03/02 05:27:32;;;;;;;28.38;18.35;;;-0.90;99.90;;;;;;480238;246;27506;-75
2023/03/02 05:29:33;;;;;;;32.10;19.15;;;-0.90;99.90;;;;;;468957;252;27430;-75
2023/03/02 05:31:34;;;;;;;34.08;20.80;;;-0.90;99.90;;;;;;480225;247;27435;-75
2023/03/02 05:33:36;;;;;;;35.45;19.10;;;-0.90;99.90;;;;;;469022;252;27863;-75
2023/03/02 05:35:37;;;;;;;31.62;19.10;;;-0.90;99.90;;;;;;480171;247;27403;-75
2023/03/02 05:37:43;;;;;;;30.95;19.25;;;-0.90;99.90;;;;;;469049;252;27467;-75
2023/03/02 05:39:42;;;;;;;35.22;19.17;;;-0.90;99.90;;;;;;480104;247;27994;-76
2023/03/02 05:41:44;;;;;;;34.33;19.60;;;-1.00;99.90;;;;;;469015;252;27438;-75
2023/03/02 05:43:45;;;;;;;34.17;19.85;;;-1.00;99.90;;;;;;480228;247;27499;-76
2023/03/02 05:45:46;;;;;;;32.92;18.30;;;-1.00;99.90;;;;;;468588;252;27367;-74
2023/03/02 05:47:47;;;;;;;30.42;18.25;;;-1.00;99.90;;;;;;480280;246;27411;-75
2023/03/02 05:49:49;;;;;;;33.13;18.55;;;-1.00;99.90;;;;;;469020;252;27463;-76
2023/03/02 05:51:50;;;;;;;32.17;19.00;;;-1.00;99.90;;;;;;480227;247;27930;-74
2023/03/02 05:53:51;;;;;;;42.10;20.10;;;-1.00;99.90;;;;;;480249;247;27944;-76
2023/03/02 05:55:52;;;;;;;36.35;18.60;;;-1.00;99.90;;;;;;468606;252;27469;-73
2023/03/02 05:57:54;;;;;;;31.95;19.37;;;-1.00;99.90;;;;;;480249;246;27474;-74
2023/03/02 05:59:55;;;;;;;34.25;18.05;;;-1.00;99.90;;;;;;480253;247;27428;-75
2023/03/02 06:01:57;;;;;;;29.65;19.12;;;-1.00;99.90;;;;;;477065;244;27320;-75
2023/03/02 06:03:57;;;;;;;34.10;17.85;;;-1.10;99.90;;;;;;480243;246;28003;-75
2023/03/02 06:05:59;;;;;;;31.87;19.50;;;-1.10;99.90;;;;;;468575;252;29669;-75
2023/03/02 06:08:00;;;;;;;36.50;18.50;;;-1.10;99.90;;;;;;480299;247;27506;-76
2023/03/02 06:10:01;;;;;;;32.72;19.70;;;-1.00;99.90;;;;;;469017;252;27474;-73
2023/03/02 06:12:02;;;;;;;33.08;18.48;;;-1.00;99.90;;;;;;480208;247;27542;-75
2023/03/02 06:14:04;;;;;;;33.25;19.70;;;-1.10;99.90;;;;;;469007;252;27484;-73
2023/03/02 06:16:05;;;;;;;30.58;18.02;;;-1.00;99.90;;;;;;480233;247;27427;-75
2023/03/02 06:18:06;;;;;;;33.40;18.70;;;-1.00;99.90;;;;;;469063;252;27891;-76
2023/03/02 06:20:09;;;;;;;30.75;19.42;;;-1.00;99.90;;;;;;480267;247;27431;-76
2023/03/02 06:22:09;;;;;;;29.73;17.80;;;-1.00;99.90;;;;;;476986;249;27318;-75
2023/03/02 06:24:10;;;;;;;31.27;17.92;;;-1.00;99.90;;;;;;480281;246;27529;-74
2023/03/02 06:26:11;;;;;;;31.87;19.58;;;-1.00;99.90;;;;;;469033;252;27612;-74
2023/03/02 06:28:12;;;;;;;35.70;20.33;;;-1.00;99.90;;;;;;480280;247;27400;-74
2023/03/02 06:30:14;;;;;;;30.15;18.75;;;-1.00;99.90;;;;;;480275;247;27899;-75
2023/03/02 06:32:15;;;;;;;33.03;18.58;;;-1.00;99.90;;;;;;469057;252;27967;-75
2023/03/02 06:34:16;;;;;;;36.05;19.50;;;-1.00;99.90;;;;;;480222;247;27515;-75
2023/03/02 06:36:18;;;;;;;30.35;17.27;;;-1.00;99.90;;;;;;469029;252;27457;-75
2023/03/02 06:38:19;;;;;;;34.83;19.65;;;-1.00;99.90;;;;;;480261;247;27511;-74
2023/03/02 06:40:20;;;;;;;31.45;19.15;;;-1.00;99.90;;;;;;469029;252;27576;-76
2023/03/02 06:42:21;;;;;;;34.65;18.95;;;-0.90;99.90;;;;;;480135;247;27852;-74
2023/03/02 06:44:23;;;;;;;34.67;18.58;;;-0.90;99.90;;;;;;468563;252;29038;-74
2023/03/02 06:46:24;;;;;;;31.45;20.05;;;-1.00;99.90;;;;;;480259;246;27412;-75
2023/03/02 06:48:25;;;;;;;31.98;18.08;;;-0.90;99.90;;;;;;469031;252;27438;-75
2023/03/02 06:50:27;;;;;;;28.90;18.58;;;-0.90;99.90;;;;;;480153;247;27430;-75
2023/03/02 06:52:28;;;;;;;29.85;17.25;;;-0.80;99.90;;;;;;476954;249;27366;-74
2023/03/02 06:54:29;;;;;;;29.55;17.85;;;-0.80;99.90;;;;;;480255;243;28029;-75
2023/03/02 06:56:30;;;;;;;28.87;17.85;;;-0.80;99.90;;;;;;469027;252;28913;-76
2023/03/02 06:58:31;;;;;;;31.55;19.05;;;-0.70;99.90;;;;;;480274;247;27509;-74
2023/03/02 07:00:33;;;;;;;31.85;18.05;;;-0.70;99.90;;;;;;480285;247;27530;-75
2023/03/02 07:02:34;;;;;;;33.80;19.48;;;-0.70;99.90;;;;;;469056;252;27394;-74
2023/03/02 07:04:35;;;;;;;31.23;18.75;;;-0.60;99.90;;;;;;480262;245;27502;-74
2023/03/02 07:06:36;;;;;;;34.50;19.08;;;-0.60;99.90;;;;;;469048;252;27322;-74
2023/03/02 07:08:38;;;;;;;31.98;17.92;;;-0.60;99.90;;;;;;480277;247;27982;-74
2023/03/02 07:10:39;;;;;;;28.17;17.77;;;-0.60;99.90;;;;;;468654;252;27478;-74
2023/03/02 07:12:40;;;;;;;31.42;19.20;;;-0.50;99.90;;;;;;480269;246;27439;-76
2023/03/02 07:14:41;;;;;;;31.15;19.52;;;-0.50;99.90;;;;;;469031;252;27373;-74
2023/03/02 07:16:43;;;;;;;29.98;18.25;;;-0.40;99.90;;;;;;477041;249;27327;-74
2023/03/02 07:18:44;;;;;;;34.47;19.50;;;-0.40;99.90;;;;;;480270;247;27431;-75
2023/03/02 07:20:45;;;;;;;30.67;18.25;;;-0.40;99.90;;;;;;469058;252;27838;-75
2023/03/02 07:22:46;;;;;;;31.77;18.40;;;-0.30;99.90;;;;;;480264;247;27952;-74
2023/03/02 07:24:48;;;;;;;32.70;18.83;;;-0.30;99.90;;;;;;469054;252;27364;-74
2023/03/02 07:26:49;;;;;;;32.70;19.25;;;-0.30;99.90;;;;;;480240;247;27439;-75
2023/03/02 07:28:50;;;;;;;36.25;19.80;;;-0.20;99.90;;;;;;480278;246;27472;-75
2023/03/02 07:30:52;;;;;;;33.33;19.05;;;-0.20;99.90;;;;;;469064;252;27570;-76
2023/03/02 07:32:53;;;;;;;31.42;18.15;;;-0.10;99.90;;;;;;480300;247;27855;-74
2023/03/02 07:34:54;;;;;;;33.53;19.55;;;-0.10;99.90;;;;;;469080;252;27964;-76
2023/03/02 07:36:56;;;;;;;31.60;19.08;;;0.00;99.90;;;;;;480319;243;27570;-76
2023/03/02 07:38:57;;;;;;;31.65;18.65;;;0.00;99.90;;;;;;477064;248;27320;-74
2023/03/02 07:40:58;;;;;;;32.03;19.55;;;0.10;99.90;;;;;;480302;246;27527;-76
2023/03/02 07:42:59;;;;;;;29.40;18.48;;;0.10;99.90;;;;;;477093;248;27410;-74
2023/03/02 07:45:00;;;;;;;30.85;17.48;;;0.20;99.90;;;;;;480289;247;27447;-74
2023/03/02 07:47:02;;;;;;;32.25;19.00;;;0.30;99.90;;;;;;477082;248;27977;-74
2023/03/02 07:49:03;;;;;;;31.15;17.80;;;0.40;99.90;;;;;;480272;246;27971;-76
2023/03/02 07:51:04;;;;;;;32.83;18.17;;;0.50;99.90;;;;;;477081;248;27870;-75
2023/03/02 07:53:05;;;;;;;27.48;17.37;;;0.60;99.90;;;;;;480238;247;27392;-75
2023/03/02 07:55:07;;;;;;;30.00;17.55;;;0.60;99.90;;;;;;477055;248;27356;-74
2023/03/02 07:57:08;;;;;;;28.30;17.80;;;0.70;99.90;;;;;;480251;247;27528;-75
2023/03/02 07:59:09;;;;;;;27.92;17.83;;;0.80;99.90;;;;;;477072;248;27410;-75
2023/03/02 08:01:10;;;;;;;31.12;17.27;;;0.90;99.90;;;;;;480275;246;27485;-74
2023/03/02 08:03:12;;;;;;;27.02;17.50;;;0.90;99.90;;;;;;477061;248;27748;-75
2023/03/02 08:05:13;;;;;;;30.48;17.40;;;0.90;99.90;;;;;;480259;246;27932;-74
2023/03/02 08:07:14;;;;;;;32.60;18.83;;;1.00;99.90;;;;;;477052;248;27460;-75
2023/03/02 08:09:16;;;;;;;27.50;16.33;;;1.00;99.90;;;;;;480295;246;27399;-75
2023/03/02 08:11:17;;;;;;;28.05;16.85;;;1.00;99.90;;;;;;477087;248;27359;-75
2023/03/02 08:13:18;;;;;;;31.62;18.30;;;1.10;99.90;;;;;;480284;246;27415;-74
2023/03/02 08:15:19;;;;;;;26.65;17.37;;;1.10;99.90;;;;;;477050;248;27438;-74
2023/03/02 08:17:20;;;;;;;30.40;18.73;;;1.10;99.90;;;;;;480262;246;27565;-74
2023/03/02 08:19:22;;;;;;;29.05;16.67;;;1.10;99.90;;;;;;477071;248;28678;-74
2023/03/02 08:21:23;;;;;;;29.90;17.92;;;1.20;99.90;;;;;;480247;246;27901;-74
2023/03/02 08:23:24;;;;;;;30.35;17.52;;;1.20;99.90;;;;;;477076;248;27315;-75
2023/03/02 08:25:25;;;;;;;26.40;16.40;;;1.20;99.90;;;;;;480229;246;27559;-74
2023/03/02 08:27:27;;;;;;;27.30;16.73;;;1.20;99.90;;;;;;477112;248;27377;-75
2023/03/02 08:29:28;;;;;;;26.90;17.00;;;1.30;99.90;;;;;;480276;246;27498;-74
2023/03/02 08:31:29;;;;;;;25.77;17.15;;;1.30;99.90;;;;;;477064;248;27366;-74
2023/03/02 08:33:31;;;;;;;26.90;15.60;;;1.30;99.90;;;;;;480254;246;27442;-75
2023/03/02 08:35:32;;;;;;;30.05;16.83;;;1.30;99.90;;;;;;477075;248;27867;-75
2023/03/02 08:37:33;;;;;;;30.67;17.50;;;1.30;99.90;;;;;;480278;246;29037;-74
2023/03/02 08:39:34;;;;;;;29.02;16.25;;;1.40;99.90;;;;;;477058;248;27315;-74
2023/03/02 08:41:36;;;;;;;51.97;19.62;;;1.40;99.90;;;;;;480259;246;27426;-74
2023/03/02 08:43:37;;;;;;;27.80;17.30;;;1.50;99.90;;;;;;477082;248;27304;-74
2023/03/02 08:45:38;;;;;;;28.52;17.20;;;1.50;99.90;;;;;;480246;246;27440;-74
2023/03/02 08:47:39;;;;;;;27.08;15.88;;;1.60;99.90;;;;;;477074;248;27449;-74
2023/03/02 08:49:41;;;;;;;28.25;17.10;;;1.60;99.90;;;;;;480269;246;28006;-75
2023/03/02 08:51:42;;;;;;;29.10;16.75;;;1.60;99.90;;;;;;477059;248;27941;-74
2023/03/02 08:53:43;;;;;;;27.70;16.25;;;1.70;99.90;;;;;;480265;246;27432;-75
2023/03/02 08:55:44;;;;;;;28.00;16.67;;;1.80;99.90;;;;;;477035;249;27347;-75
2023/03/02 08:57:46;;;;;;;29.17;17.12;;;1.80;99.90;;;;;;480231;246;27506;-75
2023/03/02 08:59:47;;;;;;;27.17;15.15;;;1.80;99.90;;;;;;477050;248;27395;-75
2023/03/02 09:01:48;;;;;;;28.17;15.98;;;1.90;99.90;;;;;;480263;246;27436;-75
2023/03/02 09:03:49;;;;;;;30.50;17.85;;;1.90;99.90;;;;;;477055;248;27300;-75
2023/03/02 09:05:51;;;;;;;29.83;17.60;;;1.90;99.90;;;;;;480240;246;27986;-75
2023/03/02 09:07:52;;;;;;;29.40;16.50;;;2.00;99.90;;;;;;477045;248;27841;-74
2023/03/02 09:09:53;;;;;;;27.80;16.40;;;2.10;99.90;;;;;;480250;246;27384;-75
2023/03/02 09:11:54;;;;;;;28.45;16.77;;;2.20;99.90;;;;;;477047;248;27449;-74
2023/03/02 09:13:56;;;;;;;27.45;16.35;;;2.30;99.90;;;;;;480243;243;27467;-75
2023/03/02 09:15:57;;;;;;;26.42;16.25;;;2.30;99.90;;;;;;477062;248;27410;-75
2023/03/02 09:17:58;;;;;;;28.35;15.30;;;2.40;99.90;;;;;;480233;246;27435;-75
2023/03/02 09:20:00;;;;;;;26.83;16.12;;;2.50;99.90;;;;;;477091;248;27339;-76
2023/03/02 09:22:01;;;;;;;23.77;14.87;;;2.50;99.90;;;;;;480295;246;28082;-75
2023/03/02 09:24:02;;;;;;;23.92;15.80;;;2.60;99.90;;;;;;477060;243;28521;-74
2023/03/02 09:26:03;;;;;;;25.67;16.25;;;2.70;99.90;;;;;;480289;247;27383;-74
2023/03/02 09:28:04;;;;;;;26.15;16.00;;;2.70;99.90;;;;;;476465;248;35273;-75
2023/03/02 09:30:06;;;;;;;25.10;14.75;;;2.80;99.90;;;;;;480255;246;27506;-75
2023/03/02 09:32:07;;;;;;;29.67;16.40;;;2.90;99.90;;;;;;477056;248;27367;-75
2023/03/02 09:34:08;;;;;;;27.20;16.12;;;2.90;99.90;;;;;;480231;246;27494;-75
2023/03/02 09:36:10;;;;;;;23.80;14.85;;;3.10;99.90;;;;;;477080;248;27787;-76
2023/03/02 09:38:17;;;;;;;24.12;15.25;;;3.20;99.90;;;;;;480237;246;27898;-76
2023/03/02 09:40:15;;;;;;;25.42;16.12;;;3.30;99.90;;;;;;479926;247;27926;-75
2023/03/02 09:42:16;;;;;;;25.45;15.20;;;3.40;99.90;;;;;;480254;247;27526;-75
2023/03/02 09:44:18;;;;;;;28.60;15.88;;;3.60;99.90;;;;;;477086;248;27391;-75
2023/03/02 09:46:19;;;;;;;25.27;15.20;;;3.80;99.90;;;;;;480265;246;27435;-75
2023/03/02 09:48:20;;;;;;;27.17;15.80;;;3.90;99.90;;;;;;476994;249;27346;-75
2023/03/02 09:50:21;;;;;;;26.15;16.12;;;3.90;99.90;;;;;;480259;246;27450;-75
2023/03/02 09:52:23;;;;;;;21.70;14.02;;;4.00;99.90;;;;;;477066;248;27819;-76
2023/03/02 09:54:24;;;;;;;25.48;15.55;;;4.10;99.90;;;;;;480255;246;29131;-75
2023/03/02 09:56:25;;;;;;;28.58;15.30;;;4.20;99.90;;;;;;477068;248;27355;-75
2023/03/02 09:58:26;;;;;;;26.15;15.40;;;4.40;99.90;;;;;;480254;246;27474;-76
2023/03/02 10:00:28;;;;;;;22.17;15.15;;;4.40;99.90;;;;;;477065;248;27383;-76
2023/03/02 10:02:29;;;;;;;27.67;14.52;;;4.50;99.90;;;;;;480270;246;27793;-77
2023/03/02 10:04:30;;;;;;;26.62;14.40;;;4.50;99.90;;;;;;477049;248;27630;-76
2023/03/02 10:06:31;;;;;;;20.83;13.98;;;4.70;99.90;;;;;;480208;246;27985;-75
2023/03/02 10:08:33;;;;;;;21.75;14.15;;;4.90;99.90;;;;;;477048;248;27798;-78
2023/03/02 10:10:34;;;;;;;22.65;14.57;;;5.10;99.90;;;;;;480253;246;27419;-76
2023/03/02 10:12:35;;;;;;;27.90;14.85;;;5.00;99.90;;;;;;477116;248;27450;-77
2023/03/02 10:14:36;;;;;;;22.30;13.45;;;4.90;99.90;;;;;;480261;246;27388;-76
2023/03/02 10:16:38;;;;;;;25.40;14.65;;;5.10;99.90;;;;;;477068;248;27459;-77
2023/03/02 10:18:39;;;;;;;20.85;13.60;;;5.10;99.90;;;;;;480248;246;27927;-75
2023/03/02 10:20:40;;;;;;;23.90;13.45;;;5.10;99.90;;;;;;477083;248;27869;-75
2023/03/02 10:22:41;;;;;;;20.77;13.05;;;5.20;99.90;;;;;;480257;246;27522;-75